sensor_id;sensor_type;location;lat;lon;timestamp;P1;durP1;ratioP1;P2;durP2;ratioP2
13571;SDS011;6857;53.484;10.216;2023-05-23T00:00:41;11.40;;;10.17;;
13571;SDS011;6857;53.484;10.216;2023-05-23T00:03:07;11.80;;;10.70;;
13571;SDS011;6857;53.484;10.216;2023-05-23T00:05:34;11.70;;;10.50;;
13571;SDS011;6857;53.484;10.216;2023-05-23T00:08:00;14.43;;;10.07;;
13571;SDS011;6857;53.484;10.216;2023-05-23T00:10:26;11.47;;;10.37;;
13571;SDS011;6857;53.484;10.216;2023-05-23T00:12:52;12.07;;;10.90;;
13571;SDS011;6857;53.484;10.216;2023-05-23T00:15:19;11.90;;;10.80;;
13571;SDS011;6857;53.484;10.216;2023-05-23T00:17:46;12.17;;;11.07;;
13571;SDS011;6857;53.484;10.216;2023-05-23T00:20:12;12.07;;;10.87;;
13571;SDS011;6857;53.484;10.216;2023-05-23T00:22:38;12.40;;;11.10;;
13571;SDS011;6857;53.484;10.216;2023-05-23T00:25:07;12.93;;;11.60;;
13571;SDS011;6857;53.484;10.216;2023-05-23T00:27:33;12.83;;;11.63;;
13571;SDS011;6857;53.484;10.216;2023-05-23T00:29:59;12.77;;;11.50;;
13571;SDS011;6857;53.484;10.216;2023-05-23T00:32:25;11.93;;;10.83;;
13571;SDS011;6857;53.484;10.216;2023-05-23T00:34:51;14.10;;;12.70;;
13571;SDS011;6857;53.484;10.216;2023-05-23T00:37:18;14.50;;;13.10;;
13571;SDS011;6857;53.484;10.216;2023-05-23T00:39:44;14.60;;;13.20;;
13571;SDS011;6857;53.484;10.216;2023-05-23T00:42:10;14.63;;;13.00;;
13571;SDS011;6857;53.484;10.216;2023-05-23T00:44:36;14.53;;;13.20;;
13571;SDS011;6857;53.484;10.216;2023-05-23T00:47:02;14.77;;;13.40;;
13571;SDS011;6857;53.484;10.216;2023-05-23T00:49:28;14.33;;;12.93;;
13571;SDS011;6857;53.484;10.216;2023-05-23T00:51:54;13.57;;;12.27;;
13571;SDS011;6857;53.484;10.216;2023-05-23T00:54:23;14.33;;;13.00;;
13571;SDS011;6857;53.484;10.216;2023-05-23T00:56:51;14.83;;;13.33;;
13571;SDS011;6857;53.484;10.216;2023-05-23T00:59:17;15.07;;;13.57;;
13571;SDS011;6857;53.484;10.216;2023-05-23T01:01:45;15.70;;;14.20;;
13571;SDS011;6857;53.484;10.216;2023-05-23T01:04:11;16.30;;;14.73;;
13571;SDS011;6857;53.484;10.216;2023-05-23T01:06:38;16.33;;;14.87;;
13571;SDS011;6857;53.484;10.216;2023-05-23T01:09:04;16.73;;;14.97;;
13571;SDS011;6857;53.484;10.216;2023-05-23T01:11:35;16.83;;;15.13;;
13571;SDS011;6857;53.484;10.216;2023-05-23T01:14:12;16.70;;;15.13;;
13571;SDS011;6857;53.484;10.216;2023-05-23T01:16:52;16.50;;;14.80;;
13571;SDS011;6857;53.484;10.216;2023-05-23T01:22:02;17.50;;;15.80;;
13571;SDS011;6857;53.484;10.216;2023-05-23T01:29:27;18.10;;;16.23;;
13571;SDS011;6857;53.484;10.216;2023-05-23T01:31:54;18.77;;;17.07;;
13571;SDS011;6857;53.484;10.216;2023-05-23T01:34:22;16.63;;;15.03;;
13571;SDS011;6857;53.484;10.216;2023-05-23T01:36:48;16.20;;;14.57;;
13571;SDS011;6857;53.484;10.216;2023-05-23T01:39:14;17.30;;;15.70;;
13571;SDS011;6857;53.484;10.216;2023-05-23T01:41:40;16.10;;;14.70;;
13571;SDS011;6857;53.484;10.216;2023-05-23T01:44:06;17.20;;;15.53;;
13571;SDS011;6857;53.484;10.216;2023-05-23T01:46:32;18.77;;;16.87;;
13571;SDS011;6857;53.484;10.216;2023-05-23T01:48:59;18.50;;;16.67;;
13571;SDS011;6857;53.484;10.216;2023-05-23T01:51:25;17.27;;;15.67;;
13571;SDS011;6857;53.484;10.216;2023-05-23T01:53:52;17.73;;;16.03;;
13571;SDS011;6857;53.484;10.216;2023-05-23T01:56:18;18.00;;;16.20;;
13571;SDS011;6857;53.484;10.216;2023-05-23T01:58:45;18.73;;;16.73;;
13571;SDS011;6857;53.484;10.216;2023-05-23T02:07:19;24.70;;;22.10;;
13571;SDS011;6857;53.484;10.216;2023-05-23T02:09:47;27.40;;;24.20;;
13571;SDS011;6857;53.484;10.216;2023-05-23T02:12:13;26.00;;;22.77;;
13571;SDS011;6857;53.484;10.216;2023-05-23T02:14:39;22.93;;;20.43;;
13571;SDS011;6857;53.484;10.216;2023-05-23T02:17:06;24.00;;;21.53;;
13571;SDS011;6857;53.484;10.216;2023-05-23T02:19:34;22.57;;;20.33;;
13571;SDS011;6857;53.484;10.216;2023-05-23T02:21:59;23.40;;;20.93;;
13571;SDS011;6857;53.484;10.216;2023-05-23T02:24:26;21.10;;;19.10;;
13571;SDS011;6857;53.484;10.216;2023-05-23T02:26:52;20.20;;;18.20;;
13571;SDS011;6857;53.484;10.216;2023-05-23T02:29:18;21.50;;;19.53;;
13571;SDS011;6857;53.484;10.216;2023-05-23T02:31:44;34.27;;;30.80;;
13571;SDS011;6857;53.484;10.216;2023-05-23T02:34:10;39.77;;;35.67;;
13571;SDS011;6857;53.484;10.216;2023-05-23T02:36:36;37.40;;;33.53;;
13571;SDS011;6857;53.484;10.216;2023-05-23T02:39:03;38.67;;;34.87;;
13571;SDS011;6857;53.484;10.216;2023-05-23T02:41:29;39.30;;;35.30;;
13571;SDS011;6857;53.484;10.216;2023-05-23T02:43:55;41.70;;;37.40;;
13571;SDS011;6857;53.484;10.216;2023-05-23T02:46:21;41.13;;;36.93;;
13571;SDS011;6857;53.484;10.216;2023-05-23T02:48:47;44.87;;;39.97;;
13571;SDS011;6857;53.484;10.216;2023-05-23T02:51:13;49.10;;;42.53;;
13571;SDS011;6857;53.484;10.216;2023-05-23T02:53:39;49.17;;;43.83;;
13571;SDS011;6857;53.484;10.216;2023-05-23T02:56:05;53.13;;;43.07;;
13571;SDS011;6857;53.484;10.216;2023-05-23T02:58:32;56.03;;;44.30;;
13571;SDS011;6857;53.484;10.216;2023-05-23T03:01:00;53.23;;;43.83;;
13571;SDS011;6857;53.484;10.216;2023-05-23T03:03:26;61.17;;;46.80;;
13571;SDS011;6857;53.484;10.216;2023-05-23T03:05:52;61.23;;;47.97;;
13571;SDS011;6857;53.484;10.216;2023-05-23T03:08:18;61.37;;;48.27;;
13571;SDS011;6857;53.484;10.216;2023-05-23T03:10:44;61.47;;;48.70;;
13571;SDS011;6857;53.484;10.216;2023-05-23T03:13:10;63.00;;;47.33;;
13571;SDS011;6857;53.484;10.216;2023-05-23T03:15:36;60.07;;;46.83;;
13571;SDS011;6857;53.484;10.216;2023-05-23T03:18:02;62.37;;;47.33;;
13571;SDS011;6857;53.484;10.216;2023-05-23T03:20:28;60.53;;;46.37;;
13571;SDS011;6857;53.484;10.216;2023-05-23T03:22:54;66.43;;;48.27;;
13571;SDS011;6857;53.484;10.216;2023-05-23T03:25:20;60.17;;;46.10;;
13571;SDS011;6857;53.484;10.216;2023-05-23T03:27:46;65.73;;;48.43;;
13571;SDS011;6857;53.484;10.216;2023-05-23T03:30:12;60.67;;;47.57;;
13571;SDS011;6857;53.484;10.216;2023-05-23T03:32:38;59.27;;;46.57;;
13571;SDS011;6857;53.484;10.216;2023-05-23T03:35:04;56.27;;;43.80;;
13571;SDS011;6857;53.484;10.216;2023-05-23T03:37:30;61.63;;;47.23;;
13571;SDS011;6857;53.484;10.216;2023-05-23T03:39:56;59.27;;;44.73;;
13571;SDS011;6857;53.484;10.216;2023-05-23T03:42:22;56.30;;;43.53;;
13571;SDS011;6857;53.484;10.216;2023-05-23T03:44:48;64.90;;;43.83;;
13571;SDS011;6857;53.484;10.216;2023-05-23T03:47:14;54.63;;;42.57;;
13571;SDS011;6857;53.484;10.216;2023-05-23T03:49:40;56.97;;;40.97;;
13571;SDS011;6857;53.484;10.216;2023-05-23T03:52:06;53.80;;;41.67;;
13571;SDS011;6857;53.484;10.216;2023-05-23T03:54:32;49.80;;;37.40;;
13571;SDS011;6857;53.484;10.216;2023-05-23T03:56:58;49.63;;;35.47;;
13571;SDS011;6857;53.484;10.216;2023-05-23T03:59:24;47.17;;;34.63;;
13571;SDS011;6857;53.484;10.216;2023-05-23T04:01:49;42.37;;;33.67;;
13571;SDS011;6857;53.484;10.216;2023-05-23T04:04:15;44.83;;;33.37;;
13571;SDS011;6857;53.484;10.216;2023-05-23T04:06:42;46.67;;;34.90;;
13571;SDS011;6857;53.484;10.216;2023-05-23T04:09:08;43.23;;;33.00;;
13571;SDS011;6857;53.484;10.216;2023-05-23T04:11:34;43.07;;;32.37;;
13571;SDS011;6857;53.484;10.216;2023-05-23T04:14:00;43.30;;;32.67;;
13571;SDS011;6857;53.484;10.216;2023-05-23T04:16:26;45.53;;;33.30;;
13571;SDS011;6857;53.484;10.216;2023-05-23T04:18:52;41.93;;;32.87;;
13571;SDS011;6857;53.484;10.216;2023-05-23T04:21:19;45.20;;;32.57;;
13571;SDS011;6857;53.484;10.216;2023-05-23T04:23:45;48.00;;;33.87;;
13571;SDS011;6857;53.484;10.216;2023-05-23T04:26:11;46.37;;;36.00;;
13571;SDS011;6857;53.484;10.216;2023-05-23T04:28:37;48.77;;;34.37;;
13571;SDS011;6857;53.484;10.216;2023-05-23T04:31:04;52.77;;;37.33;;
13571;SDS011;6857;53.484;10.216;2023-05-23T04:33:30;52.10;;;37.10;;
13571;SDS011;6857;53.484;10.216;2023-05-23T04:35:58;52.67;;;40.00;;
13571;SDS011;6857;53.484;10.216;2023-05-23T04:38:23;53.90;;;40.20;;
13571;SDS011;6857;53.484;10.216;2023-05-23T04:40:50;49.57;;;35.70;;
13571;SDS011;6857;53.484;10.216;2023-05-23T04:43:16;54.00;;;37.47;;
13571;SDS011;6857;53.484;10.216;2023-05-23T04:45:43;49.97;;;35.53;;
13571;SDS011;6857;53.484;10.216;2023-05-23T04:48:09;50.97;;;35.97;;
13571;SDS011;6857;53.484;10.216;2023-05-23T04:50:37;49.10;;;35.37;;
13571;SDS011;6857;53.484;10.216;2023-05-23T04:53:04;42.00;;;31.67;;
13571;SDS011;6857;53.484;10.216;2023-05-23T04:55:30;47.33;;;32.37;;
13571;SDS011;6857;53.484;10.216;2023-05-23T04:57:56;41.80;;;30.60;;
13571;SDS011;6857;53.484;10.216;2023-05-23T05:00:22;44.57;;;30.57;;
13571;SDS011;6857;53.484;10.216;2023-05-23T05:02:48;48.43;;;30.77;;
13571;SDS011;6857;53.484;10.216;2023-05-23T05:05:14;47.43;;;32.23;;
13571;SDS011;6857;53.484;10.216;2023-05-23T05:07:40;47.77;;;31.13;;
13571;SDS011;6857;53.484;10.216;2023-05-23T05:10:06;48.50;;;31.60;;
13571;SDS011;6857;53.484;10.216;2023-05-23T05:12:33;43.83;;;30.87;;
13571;SDS011;6857;53.484;10.216;2023-05-23T05:14:59;44.80;;;29.70;;
13571;SDS011;6857;53.484;10.216;2023-05-23T05:17:25;47.23;;;31.00;;
13571;SDS011;6857;53.484;10.216;2023-05-23T05:19:51;43.87;;;30.67;;
13571;SDS011;6857;53.484;10.216;2023-05-23T05:22:16;44.37;;;30.07;;
13571;SDS011;6857;53.484;10.216;2023-05-23T05:24:42;45.40;;;30.97;;
13571;SDS011;6857;53.484;10.216;2023-05-23T05:27:08;44.17;;;30.50;;
13571;SDS011;6857;53.484;10.216;2023-05-23T05:29:35;46.17;;;30.97;;
13571;SDS011;6857;53.484;10.216;2023-05-23T05:32:02;50.80;;;32.97;;
13571;SDS011;6857;53.484;10.216;2023-05-23T05:34:27;47.67;;;32.30;;
13571;SDS011;6857;53.484;10.216;2023-05-23T05:36:53;49.63;;;33.27;;
13571;SDS011;6857;53.484;10.216;2023-05-23T05:39:21;50.43;;;36.03;;
13571;SDS011;6857;53.484;10.216;2023-05-23T05:41:47;61.23;;;38.73;;
13571;SDS011;6857;53.484;10.216;2023-05-23T05:44:13;52.73;;;37.70;;
13571;SDS011;6857;53.484;10.216;2023-05-23T05:46:39;54.57;;;36.93;;
13571;SDS011;6857;53.484;10.216;2023-05-23T05:49:05;59.57;;;37.10;;
13571;SDS011;6857;53.484;10.216;2023-05-23T05:51:31;60.03;;;38.27;;
13571;SDS011;6857;53.484;10.216;2023-05-23T05:53:57;57.70;;;39.67;;
13571;SDS011;6857;53.484;10.216;2023-05-23T05:56:23;61.47;;;41.13;;
13571;SDS011;6857;53.484;10.216;2023-05-23T05:58:48;61.67;;;41.47;;
13571;SDS011;6857;53.484;10.216;2023-05-23T06:01:14;63.43;;;42.37;;
13571;SDS011;6857;53.484;10.216;2023-05-23T06:03:41;67.93;;;42.03;;
13571;SDS011;6857;53.484;10.216;2023-05-23T06:06:07;64.73;;;45.10;;
13571;SDS011;6857;53.484;10.216;2023-05-23T06:08:34;68.77;;;44.93;;
13571;SDS011;6857;53.484;10.216;2023-05-23T06:11:00;71.37;;;46.13;;
13571;SDS011;6857;53.484;10.216;2023-05-23T06:13:25;73.63;;;45.07;;
13571;SDS011;6857;53.484;10.216;2023-05-23T06:15:51;69.47;;;45.83;;
13571;SDS011;6857;53.484;10.216;2023-05-23T06:18:17;72.17;;;44.77;;
13571;SDS011;6857;53.484;10.216;2023-05-23T06:20:43;70.03;;;44.40;;
13571;SDS011;6857;53.484;10.216;2023-05-23T06:23:09;69.63;;;45.37;;
13571;SDS011;6857;53.484;10.216;2023-05-23T06:25:35;74.53;;;45.67;;
13571;SDS011;6857;53.484;10.216;2023-05-23T06:28:01;68.40;;;46.10;;
13571;SDS011;6857;53.484;10.216;2023-05-23T06:30:27;72.17;;;45.53;;
13571;SDS011;6857;53.484;10.216;2023-05-23T06:32:53;75.30;;;46.83;;
13571;SDS011;6857;53.484;10.216;2023-05-23T06:35:19;65.57;;;43.67;;
13571;SDS011;6857;53.484;10.216;2023-05-23T06:37:45;69.40;;;45.87;;
13571;SDS011;6857;53.484;10.216;2023-05-23T06:40:12;70.47;;;44.63;;
13571;SDS011;6857;53.484;10.216;2023-05-23T06:42:38;71.30;;;45.90;;
13571;SDS011;6857;53.484;10.216;2023-05-23T06:45:04;67.73;;;44.43;;
13571;SDS011;6857;53.484;10.216;2023-05-23T06:47:31;64.57;;;43.23;;
13571;SDS011;6857;53.484;10.216;2023-05-23T06:49:56;68.23;;;44.83;;
13571;SDS011;6857;53.484;10.216;2023-05-23T06:52:22;64.63;;;41.93;;
13571;SDS011;6857;53.484;10.216;2023-05-23T06:54:49;65.60;;;43.07;;
13571;SDS011;6857;53.484;10.216;2023-05-23T06:57:15;61.77;;;41.23;;
13571;SDS011;6857;53.484;10.216;2023-05-23T06:59:41;69.07;;;41.37;;
13571;SDS011;6857;53.484;10.216;2023-05-23T07:02:07;61.77;;;39.67;;
13571;SDS011;6857;53.484;10.216;2023-05-23T07:04:33;58.60;;;39.40;;
13571;SDS011;6857;53.484;10.216;2023-05-23T07:06:59;63.90;;;40.20;;
13571;SDS011;6857;53.484;10.216;2023-05-23T07:09:26;57.10;;;36.57;;
13571;SDS011;6857;53.484;10.216;2023-05-23T07:11:52;51.00;;;35.63;;
13571;SDS011;6857;53.484;10.216;2023-05-23T07:14:18;49.87;;;33.80;;
13571;SDS011;6857;53.484;10.216;2023-05-23T07:16:44;55.10;;;36.47;;
13571;SDS011;6857;53.484;10.216;2023-05-23T07:19:10;50.77;;;32.97;;
13571;SDS011;6857;53.484;10.216;2023-05-23T07:21:36;51.87;;;33.50;;
13571;SDS011;6857;53.484;10.216;2023-05-23T07:24:02;48.13;;;30.80;;
13571;SDS011;6857;53.484;10.216;2023-05-23T07:26:28;41.47;;;29.30;;
13571;SDS011;6857;53.484;10.216;2023-05-23T07:28:54;39.50;;;28.27;;
13571;SDS011;6857;53.484;10.216;2023-05-23T07:31:20;38.57;;;27.43;;
13571;SDS011;6857;53.484;10.216;2023-05-23T07:33:46;39.20;;;27.17;;
13571;SDS011;6857;53.484;10.216;2023-05-23T07:36:12;42.10;;;28.23;;
13571;SDS011;6857;53.484;10.216;2023-05-23T07:38:38;46.63;;;31.67;;
13571;SDS011;6857;53.484;10.216;2023-05-23T07:41:04;43.10;;;31.17;;
13571;SDS011;6857;53.484;10.216;2023-05-23T07:43:30;40.50;;;30.60;;
13571;SDS011;6857;53.484;10.216;2023-05-23T07:45:56;43.60;;;31.57;;
13571;SDS011;6857;53.484;10.216;2023-05-23T07:48:22;40.63;;;32.03;;
13571;SDS011;6857;53.484;10.216;2023-05-23T07:50:50;43.77;;;31.63;;
13571;SDS011;6857;53.484;10.216;2023-05-23T07:53:19;32.10;;;25.63;;
13571;SDS011;6857;53.484;10.216;2023-05-23T07:55:45;29.97;;;23.13;;
13571;SDS011;6857;53.484;10.216;2023-05-23T07:58:11;25.33;;;20.17;;
13571;SDS011;6857;53.484;10.216;2023-05-23T08:00:37;25.37;;;20.33;;
13571;SDS011;6857;53.484;10.216;2023-05-23T08:03:05;22.80;;;19.03;;
13571;SDS011;6857;53.484;10.216;2023-05-23T08:05:31;21.33;;;17.13;;
13571;SDS011;6857;53.484;10.216;2023-05-23T08:07:57;22.03;;;17.97;;
13571;SDS011;6857;53.484;10.216;2023-05-23T08:10:23;19.37;;;15.87;;
13571;SDS011;6857;53.484;10.216;2023-05-23T08:12:52;17.43;;;14.90;;
13571;SDS011;6857;53.484;10.216;2023-05-23T08:15:18;15.73;;;14.03;;
13571;SDS011;6857;53.484;10.216;2023-05-23T08:17:44;16.37;;;13.13;;
13571;SDS011;6857;53.484;10.216;2023-05-23T08:20:10;14.43;;;12.70;;
13571;SDS011;6857;53.484;10.216;2023-05-23T08:22:36;14.30;;;12.80;;
13571;SDS011;6857;53.484;10.216;2023-05-23T08:25:03;13.47;;;11.63;;
13571;SDS011;6857;53.484;10.216;2023-05-23T08:27:29;13.17;;;11.27;;
13571;SDS011;6857;53.484;10.216;2023-05-23T08:29:55;13.87;;;10.57;;
13571;SDS011;6857;53.484;10.216;2023-05-23T08:32:21;13.97;;;9.93;;
13571;SDS011;6857;53.484;10.216;2023-05-23T08:34:47;11.13;;;8.80;;
13571;SDS011;6857;53.484;10.216;2023-05-23T08:37:13;12.17;;;9.23;;
13571;SDS011;6857;53.484;10.216;2023-05-23T08:39:39;13.00;;;9.10;;
13571;SDS011;6857;53.484;10.216;2023-05-23T08:42:05;8.63;;;7.73;;
13571;SDS011;6857;53.484;10.216;2023-05-23T08:44:31;10.50;;;7.37;;
13571;SDS011;6857;53.484;10.216;2023-05-23T08:46:58;12.20;;;8.07;;
13571;SDS011;6857;53.484;10.216;2023-05-23T08:49:29;9.07;;;7.30;;
13571;SDS011;6857;53.484;10.216;2023-05-23T08:51:56;7.33;;;6.47;;
13571;SDS011;6857;53.484;10.216;2023-05-23T08:54:26;8.97;;;6.90;;
13571;SDS011;6857;53.484;10.216;2023-05-23T08:56:53;9.43;;;7.10;;
13571;SDS011;6857;53.484;10.216;2023-05-23T08:59:19;10.27;;;6.83;;
13571;SDS011;6857;53.484;10.216;2023-05-23T09:01:46;9.53;;;7.57;;
13571;SDS011;6857;53.484;10.216;2023-05-23T09:04:12;7.33;;;6.63;;
13571;SDS011;6857;53.484;10.216;2023-05-23T09:06:38;7.83;;;6.23;;
13571;SDS011;6857;53.484;10.216;2023-05-23T09:09:04;7.37;;;5.97;;
13571;SDS011;6857;53.484;10.216;2023-05-23T09:11:31;7.47;;;5.37;;
13571;SDS011;6857;53.484;10.216;2023-05-23T09:13:58;8.87;;;5.20;;
13571;SDS011;6857;53.484;10.216;2023-05-23T09:16:24;6.37;;;5.20;;
13571;SDS011;6857;53.484;10.216;2023-05-23T09:18:56;7.13;;;4.73;;
13571;SDS011;6857;53.484;10.216;2023-05-23T09:21:23;5.53;;;4.93;;
13571;SDS011;6857;53.484;10.216;2023-05-23T09:23:49;7.50;;;5.10;;
13571;SDS011;6857;53.484;10.216;2023-05-23T09:26:15;7.77;;;5.00;;
13571;SDS011;6857;53.484;10.216;2023-05-23T09:28:42;6.57;;;5.03;;
13571;SDS011;6857;53.484;10.216;2023-05-23T09:31:09;6.93;;;5.83;;
13571;SDS011;6857;53.484;10.216;2023-05-23T09:33:37;9.33;;;5.87;;
13571;SDS011;6857;53.484;10.216;2023-05-23T09:36:04;6.43;;;5.70;;
13571;SDS011;6857;53.484;10.216;2023-05-23T09:38:30;6.80;;;6.07;;
13571;SDS011;6857;53.484;10.216;2023-05-23T09:40:56;9.87;;;6.23;;
13571;SDS011;6857;53.484;10.216;2023-05-23T09:43:23;6.67;;;5.23;;
13571;SDS011;6857;53.484;10.216;2023-05-23T09:45:49;8.57;;;6.67;;
13571;SDS011;6857;53.484;10.216;2023-05-23T09:48:15;11.30;;;8.43;;
13571;SDS011;6857;53.484;10.216;2023-05-23T09:50:41;12.87;;;9.67;;
13571;SDS011;6857;53.484;10.216;2023-05-23T09:53:11;15.43;;;10.50;;
13571;SDS011;6857;53.484;10.216;2023-05-23T09:55:37;15.27;;;11.13;;
13571;SDS011;6857;53.484;10.216;2023-05-23T09:58:04;16.67;;;12.13;;
13571;SDS011;6857;53.484;10.216;2023-05-23T10:00:30;15.63;;;11.60;;
13571;SDS011;6857;53.484;10.216;2023-05-23T10:03:09;16.70;;;12.57;;
13571;SDS011;6857;53.484;10.216;2023-05-23T10:05:45;16.83;;;10.93;;
13571;SDS011;6857;53.484;10.216;2023-05-23T10:08:17;14.43;;;10.33;;
13571;SDS011;6857;53.484;10.216;2023-05-23T10:13:15;17.03;;;11.07;;
13571;SDS011;6857;53.484;10.216;2023-05-23T10:15:41;15.90;;;11.10;;
13571;SDS011;6857;53.484;10.216;2023-05-23T10:18:09;14.60;;;9.93;;
13571;SDS011;6857;53.484;10.216;2023-05-23T10:20:38;11.07;;;8.90;;
13571;SDS011;6857;53.484;10.216;2023-05-23T10:23:04;11.43;;;7.90;;
13571;SDS011;6857;53.484;10.216;2023-05-23T10:25:31;8.07;;;6.00;;
13571;SDS011;6857;53.484;10.216;2023-05-23T10:27:58;9.93;;;6.80;;
13571;SDS011;6857;53.484;10.216;2023-05-23T10:30:25;8.17;;;5.50;;
13571;SDS011;6857;53.484;10.216;2023-05-23T10:32:52;10.03;;;6.20;;
13571;SDS011;6857;53.484;10.216;2023-05-23T10:35:24;8.60;;;5.40;;
13571;SDS011;6857;53.484;10.216;2023-05-23T10:43:06;8.77;;;5.63;;
13571;SDS011;6857;53.484;10.216;2023-05-23T10:45:39;9.27;;;5.80;;
13571;SDS011;6857;53.484;10.216;2023-05-23T10:48:23;7.73;;;5.70;;
13571;SDS011;6857;53.484;10.216;2023-05-23T10:53:29;8.63;;;4.80;;
13571;SDS011;6857;53.484;10.216;2023-05-23T10:55:55;7.00;;;4.80;;
13571;SDS011;6857;53.484;10.216;2023-05-23T10:58:22;8.27;;;4.57;;
13571;SDS011;6857;53.484;10.216;2023-05-23T11:00:55;8.00;;;4.10;;
13571;SDS011;6857;53.484;10.216;2023-05-23T11:03:37;5.50;;;4.00;;
13571;SDS011;6857;53.484;10.216;2023-05-23T11:06:29;9.90;;;4.13;;
13571;SDS011;6857;53.484;10.216;2023-05-23T11:09:03;8.83;;;3.67;;
13571;SDS011;6857;53.484;10.216;2023-05-23T11:14:13;9.80;;;3.53;;
13571;SDS011;6857;53.484;10.216;2023-05-23T11:16:41;6.40;;;3.57;;
13571;SDS011;6857;53.484;10.216;2023-05-23T11:21:49;8.50;;;3.07;;
13571;SDS011;6857;53.484;10.216;2023-05-23T11:24:16;7.37;;;3.23;;
13571;SDS011;6857;53.484;10.216;2023-05-23T11:26:52;7.47;;;2.80;;
13571;SDS011;6857;53.484;10.216;2023-05-23T11:29:24;6.67;;;3.30;;
13571;SDS011;6857;53.484;10.216;2023-05-23T11:31:50;6.20;;;3.60;;
13571;SDS011;6857;53.484;10.216;2023-05-23T11:34:17;10.97;;;3.00;;
13571;SDS011;6857;53.484;10.216;2023-05-23T11:36:43;6.57;;;3.20;;
13571;SDS011;6857;53.484;10.216;2023-05-23T11:39:09;6.43;;;3.03;;
13571;SDS011;6857;53.484;10.216;2023-05-23T11:41:36;9.60;;;3.73;;
13571;SDS011;6857;53.484;10.216;2023-05-23T11:44:09;8.17;;;3.43;;
13571;SDS011;6857;53.484;10.216;2023-05-23T11:46:35;11.93;;;3.73;;
13571;SDS011;6857;53.484;10.216;2023-05-23T11:49:01;11.43;;;3.63;;
13571;SDS011;6857;53.484;10.216;2023-05-23T11:51:27;10.97;;;4.00;;
13571;SDS011;6857;53.484;10.216;2023-05-23T11:53:53;8.97;;;3.93;;
13571;SDS011;6857;53.484;10.216;2023-05-23T11:56:25;5.93;;;2.87;;
13571;SDS011;6857;53.484;10.216;2023-05-23T11:58:51;7.97;;;3.50;;
13571;SDS011;6857;53.484;10.216;2023-05-23T12:01:17;10.50;;;3.30;;
13571;SDS011;6857;53.484;10.216;2023-05-23T12:03:44;7.63;;;3.60;;
13571;SDS011;6857;53.484;10.216;2023-05-23T12:06:13;8.00;;;3.50;;
13571;SDS011;6857;53.484;10.216;2023-05-23T12:08:39;11.03;;;3.90;;
13571;SDS011;6857;53.484;10.216;2023-05-23T12:11:05;6.77;;;3.23;;
13571;SDS011;6857;53.484;10.216;2023-05-23T12:13:32;10.67;;;3.57;;
13571;SDS011;6857;53.484;10.216;2023-05-23T12:15:58;9.40;;;3.23;;
13571;SDS011;6857;53.484;10.216;2023-05-23T12:18:28;7.20;;;2.93;;
13571;SDS011;6857;53.484;10.216;2023-05-23T12:20:54;8.67;;;3.57;;
13571;SDS011;6857;53.484;10.216;2023-05-23T12:23:24;9.60;;;3.30;;
13571;SDS011;6857;53.484;10.216;2023-05-23T12:25:52;14.03;;;4.20;;
13571;SDS011;6857;53.484;10.216;2023-05-23T12:28:18;7.53;;;2.60;;
13571;SDS011;6857;53.484;10.216;2023-05-23T12:30:44;10.23;;;4.00;;
13571;SDS011;6857;53.484;10.216;2023-05-23T12:33:10;7.47;;;2.97;;
13571;SDS011;6857;53.484;10.216;2023-05-23T12:35:37;16.87;;;4.43;;
13571;SDS011;6857;53.484;10.216;2023-05-23T12:38:06;9.53;;;3.90;;
13571;SDS011;6857;53.484;10.216;2023-05-23T12:40:32;12.20;;;2.93;;
13571;SDS011;6857;53.484;10.216;2023-05-23T12:42:58;9.03;;;3.10;;
13571;SDS011;6857;53.484;10.216;2023-05-23T12:45:34;9.03;;;3.23;;
13571;SDS011;6857;53.484;10.216;2023-05-23T12:48:03;8.33;;;3.03;;
13571;SDS011;6857;53.484;10.216;2023-05-23T12:50:30;8.00;;;3.00;;
13571;SDS011;6857;53.484;10.216;2023-05-23T12:52:56;7.70;;;3.70;;
13571;SDS011;6857;53.484;10.216;2023-05-23T12:55:22;14.10;;;3.40;;
13571;SDS011;6857;53.484;10.216;2023-05-23T12:57:48;11.47;;;3.37;;
13571;SDS011;6857;53.484;10.216;2023-05-23T13:00:14;12.80;;;3.80;;
13571;SDS011;6857;53.484;10.216;2023-05-23T13:02:40;9.90;;;3.23;;
13571;SDS011;6857;53.484;10.216;2023-05-23T13:05:06;8.20;;;2.63;;
13571;SDS011;6857;53.484;10.216;2023-05-23T13:07:33;9.73;;;3.50;;
13571;SDS011;6857;53.484;10.216;2023-05-23T13:10:00;11.97;;;3.47;;
13571;SDS011;6857;53.484;10.216;2023-05-23T13:12:26;13.03;;;4.63;;
13571;SDS011;6857;53.484;10.216;2023-05-23T13:14:52;8.97;;;2.80;;
13571;SDS011;6857;53.484;10.216;2023-05-23T13:17:18;11.10;;;3.37;;
13571;SDS011;6857;53.484;10.216;2023-05-23T13:19:45;12.60;;;3.30;;
13571;SDS011;6857;53.484;10.216;2023-05-23T13:22:11;11.53;;;3.60;;
13571;SDS011;6857;53.484;10.216;2023-05-23T13:24:38;11.60;;;4.20;;
13571;SDS011;6857;53.484;10.216;2023-05-23T13:27:05;9.90;;;3.47;;
13571;SDS011;6857;53.484;10.216;2023-05-23T13:29:32;9.73;;;3.37;;
13571;SDS011;6857;53.484;10.216;2023-05-23T13:31:58;11.27;;;3.60;;
13571;SDS011;6857;53.484;10.216;2023-05-23T13:34:24;14.03;;;3.80;;
13571;SDS011;6857;53.484;10.216;2023-05-23T13:36:52;14.13;;;3.80;;
13571;SDS011;6857;53.484;10.216;2023-05-23T13:39:18;6.83;;;2.87;;
13571;SDS011;6857;53.484;10.216;2023-05-23T13:41:46;11.47;;;3.47;;
13571;SDS011;6857;53.484;10.216;2023-05-23T13:44:12;10.23;;;3.00;;
13571;SDS011;6857;53.484;10.216;2023-05-23T13:46:38;10.07;;;3.37;;
13571;SDS011;6857;53.484;10.216;2023-05-23T13:49:04;9.07;;;3.53;;
13571;SDS011;6857;53.484;10.216;2023-05-23T13:51:30;10.07;;;3.10;;
13571;SDS011;6857;53.484;10.216;2023-05-23T13:53:56;9.33;;;3.70;;
13571;SDS011;6857;53.484;10.216;2023-05-23T13:56:22;8.63;;;3.57;;
13571;SDS011;6857;53.484;10.216;2023-05-23T13:58:48;13.17;;;3.53;;
13571;SDS011;6857;53.484;10.216;2023-05-23T14:01:14;8.57;;;3.30;;
13571;SDS011;6857;53.484;10.216;2023-05-23T14:03:41;11.53;;;3.90;;
13571;SDS011;6857;53.484;10.216;2023-05-23T14:06:07;12.27;;;4.00;;
13571;SDS011;6857;53.484;10.216;2023-05-23T14:08:33;7.80;;;3.13;;
13571;SDS011;6857;53.484;10.216;2023-05-23T14:10:59;12.70;;;3.50;;
13571;SDS011;6857;53.484;10.216;2023-05-23T14:13:25;10.47;;;3.60;;
13571;SDS011;6857;53.484;10.216;2023-05-23T14:15:51;11.17;;;3.33;;
13571;SDS011;6857;53.484;10.216;2023-05-23T14:18:18;8.17;;;3.40;;
13571;SDS011;6857;53.484;10.216;2023-05-23T14:20:43;8.20;;;3.03;;
13571;SDS011;6857;53.484;10.216;2023-05-23T14:23:09;9.37;;;3.00;;
13571;SDS011;6857;53.484;10.216;2023-05-23T14:25:35;11.10;;;3.30;;
13571;SDS011;6857;53.484;10.216;2023-05-23T14:28:01;13.00;;;3.67;;
13571;SDS011;6857;53.484;10.216;2023-05-23T14:30:27;8.03;;;3.23;;
13571;SDS011;6857;53.484;10.216;2023-05-23T14:32:53;10.37;;;3.30;;
13571;SDS011;6857;53.484;10.216;2023-05-23T14:35:19;11.80;;;3.30;;
13571;SDS011;6857;53.484;10.216;2023-05-23T14:37:49;9.80;;;3.30;;
13571;SDS011;6857;53.484;10.216;2023-05-23T14:40:15;8.80;;;3.00;;
13571;SDS011;6857;53.484;10.216;2023-05-23T14:42:41;10.13;;;3.10;;
13571;SDS011;6857;53.484;10.216;2023-05-23T14:45:07;10.87;;;3.20;;
13571;SDS011;6857;53.484;10.216;2023-05-23T14:47:33;9.03;;;3.03;;
13571;SDS011;6857;53.484;10.216;2023-05-23T14:50:01;10.03;;;3.10;;
13571;SDS011;6857;53.484;10.216;2023-05-23T14:52:27;10.40;;;3.20;;
13571;SDS011;6857;53.484;10.216;2023-05-23T14:54:53;12.60;;;3.67;;
13571;SDS011;6857;53.484;10.216;2023-05-23T14:57:19;10.47;;;2.97;;